createdAt,value
2023-04-15T00:01:06.008Z,18.75
2023-04-15T00:04:10.526Z,21.50
2023-04-15T00:07:16.369Z,18.75
2023-04-15T00:10:20.380Z,13.00
2023-04-15T00:13:25.020Z,46.75
2023-04-15T00:16:28.919Z,30.25
2023-04-15T00:19:33.469Z,19.00
2023-04-15T00:22:38.891Z,15.50
2023-04-15T00:25:42.453Z,9.75
2023-04-15T00:28:46.139Z,10.75
2023-04-15T00:31:51.126Z,40.00
2023-04-15T00:34:55.491Z,14.75
2023-04-15T00:38:00.770Z,23.25
2023-04-15T00:41:05.316Z,21.00
2023-04-15T00:44:09.380Z,7.00
2023-04-15T00:47:19.467Z,7.25
2023-04-15T00:50:23.799Z,6.25
2023-04-15T00:53:29.235Z,9.75
2023-04-15T00:56:36.260Z,9.25
2023-04-15T00:59:40.087Z,9.50
2023-04-15T01:02:44.079Z,10.00
2023-04-15T01:05:48.348Z,4.50
2023-04-15T01:08:54.159Z,9.00
2023-04-15T01:11:58.678Z,5.25
2023-04-15T01:15:03.976Z,11.25
2023-04-15T01:18:08.503Z,10.00
2023-04-15T01:21:14.715Z,6.50
2023-04-15T01:24:21.423Z,14.25
2023-04-15T01:27:27.116Z,11.50
2023-04-15T01:30:30.930Z,9.00
2023-04-15T01:33:34.349Z,8.75
2023-04-15T01:36:56.906Z,9.00
2023-04-15T01:40:00.507Z,10.50
2023-04-15T01:43:05.562Z,10.75
2023-04-15T01:46:10.281Z,7.00
2023-04-15T01:49:15.432Z,7.25
2023-04-15T01:52:20.125Z,6.50
2023-04-15T01:55:25.570Z,5.75
2023-04-15T01:58:31.729Z,9.75
2023-04-15T02:01:36.979Z,6.00
2023-04-15T02:04:41.688Z,6.75
2023-04-15T02:07:47.424Z,5.00
2023-04-15T02:10:52.841Z,8.25
2023-04-15T02:13:59.320Z,5.00
2023-04-15T02:17:07.480Z,6.50
2023-04-15T02:20:13.329Z,5.00
2023-04-15T02:23:18.325Z,4.00
2023-04-15T02:26:23.513Z,7.25
2023-04-15T02:29:30.009Z,5.00
2023-04-15T02:32:35.276Z,4.50
2023-04-15T02:35:44.284Z,5.25
2023-04-15T02:38:49.616Z,4.75
2023-04-15T02:41:55.361Z,4.25
2023-04-15T02:45:04.503Z,5.00
2023-04-15T02:48:12.361Z,4.00
2023-04-15T02:51:19.961Z,2.50
2023-04-15T02:54:25.955Z,4.00
2023-04-15T02:57:31.112Z,4.00
2023-04-15T03:00:42.773Z,2.00
2023-04-15T03:03:47.976Z,4.25
2023-04-15T03:06:52.669Z,4.75
2023-04-15T03:09:57.932Z,4.25
2023-04-15T03:13:03.153Z,6.50
2023-04-15T03:16:11.345Z,5.25
2023-04-15T03:19:16.691Z,7.50
2023-04-15T03:22:23.205Z,8.00
2023-04-15T03:30:15.058Z,6.00
2023-04-15T03:33:21.284Z,7.00
2023-04-15T03:36:27.331Z,3.75
2023-04-15T03:39:32.331Z,2.00
2023-04-15T03:42:37.345Z,4.00
2023-04-15T03:45:41.979Z,4.50
2023-04-15T03:48:48.338Z,3.00
2023-04-15T03:51:53.417Z,8.25
2023-04-15T03:54:59.544Z,10.50
2023-04-15T03:58:04.218Z,19.50
2023-04-15T04:01:09.627Z,14.00
2023-04-15T04:04:15.989Z,7.75
2023-04-15T04:07:21.011Z,13.75
2023-04-15T04:10:25.744Z,9.75
2023-04-15T04:13:30.775Z,9.75
2023-04-15T04:16:35.822Z,10.75
2023-04-15T04:19:42.694Z,11.50
2023-04-15T04:22:47.416Z,5.75
2023-04-15T04:25:52.706Z,6.50
2023-04-15T04:28:58.864Z,10.25
2023-04-15T04:32:04.237Z,9.50
2023-04-15T04:35:11.463Z,6.75
2023-04-15T04:38:17.107Z,11.00
2023-04-15T04:41:23.211Z,10.75
2023-04-15T04:44:28.279Z,11.00
2023-04-15T04:47:33.218Z,6.50
2023-04-15T04:50:39.688Z,14.75
2023-04-15T04:53:44.523Z,31.25
2023-04-15T04:56:49.663Z,18.00
2023-04-15T04:59:54.335Z,19.50
2023-04-15T05:02:59.805Z,6.00
2023-04-15T05:06:08.779Z,17.75
2023-04-15T05:09:13.826Z,29.75
2023-04-15T05:12:18.582Z,18.25
2023-04-15T05:15:23.956Z,20.50
2023-04-15T05:18:29.164Z,22.75
2023-04-15T05:21:37.578Z,16.25
2023-04-15T05:24:44.416Z,36.25
2023-04-15T05:27:49.650Z,54.50
2023-04-15T05:30:54.481Z,55.50
2023-04-15T05:33:59.911Z,38.50
2023-04-15T05:37:06.052Z,63.75
2023-04-15T05:40:11.731Z,82.50
2023-04-15T05:43:16.668Z,80.00
2023-04-15T05:46:22.821Z,50.50
2023-04-15T05:49:27.852Z,64.25
2023-04-15T05:52:35.908Z,64.75
2023-04-15T05:55:41.246Z,104.50
2023-04-15T05:58:47.532Z,60.00
2023-04-15T06:01:53.805Z,58.75
2023-04-15T06:05:01.462Z,64.00
2023-04-15T06:08:08.418Z,75.00
2023-04-15T06:11:13.949Z,71.00
2023-04-15T06:14:18.809Z,57.25
2023-04-15T06:17:24.360Z,38.50
2023-04-15T06:20:29.658Z,65.00
2023-04-15T06:23:37.875Z,15.50
2023-04-15T06:26:45.199Z,26.75
2023-04-15T06:29:50.302Z,18.75
2023-04-15T06:32:56.829Z,2.00
2023-04-15T06:36:02.512Z,0.00
2023-04-15T06:39:08.800Z,0.33
2023-04-15T06:42:14.000Z,1.00
2023-04-15T06:45:19.018Z,1.00
2023-04-15T06:48:24.469Z,0.00
2023-04-15T06:51:29.197Z,0.33
2023-04-15T06:54:35.839Z,2.00
2023-04-15T06:57:40.718Z,0.00
2023-04-15T07:00:46.233Z,3.00
2023-04-15T07:03:51.818Z,1.67
2023-04-15T07:07:01.543Z,1.00
2023-04-15T07:10:12.048Z,1.00
2023-04-15T07:13:21.360Z,0.00
2023-04-15T07:16:27.857Z,0.00
2023-04-15T07:19:35.056Z,0.00
2023-04-15T07:22:40.327Z,0.00
2023-04-15T07:25:47.746Z,0.00
2023-04-15T07:28:52.926Z,2.33
2023-04-15T07:31:57.916Z,6.00
2023-04-15T07:35:03.792Z,5.33
2023-04-15T07:38:08.881Z,4.00
2023-04-15T07:41:15.917Z,20.00
2023-04-15T07:44:20.968Z,3.33
2023-04-15T07:47:25.969Z,14.67
2023-04-15T07:50:30.950Z,1.00
2023-04-15T07:53:35.726Z,0.33
2023-04-15T07:56:42.162Z,3.00
2023-04-15T07:59:46.943Z,0.00
2023-04-15T08:02:53.334Z,0.00
2023-04-15T08:05:58.312Z,2.33
2023-04-15T08:09:03.636Z,0.67
2023-04-15T08:12:12.593Z,1.00
2023-04-15T08:15:18.163Z,0.33
2023-04-15T08:18:22.942Z,1.00
2023-04-15T08:21:30.825Z,2.00
2023-04-15T08:24:35.905Z,0.00
2023-04-15T08:27:45.777Z,0.67
2023-04-15T08:31:16.625Z,1.00
2023-04-15T08:34:22.237Z,1.00
2023-04-15T08:37:26.985Z,4.67
2023-04-15T08:40:42.740Z,5.33
2023-04-15T08:43:54.659Z,1.67
2023-04-15T08:47:02.943Z,12.00
2023-04-15T08:50:11.830Z,10.00
2023-04-15T08:53:17.245Z,2.67
2023-04-15T08:56:26.202Z,1.67
2023-04-15T08:59:33.920Z,3.00
2023-04-15T09:02:39.077Z,0.00
2023-04-15T09:05:44.506Z,2.00
2023-04-15T09:08:49.244Z,3.33
2023-04-15T09:11:55.234Z,2.00
2023-04-15T09:15:04.984Z,1.67
2023-04-15T09:18:13.247Z,2.00
2023-04-15T09:21:19.254Z,0.00
2023-04-15T09:24:28.215Z,3.00
2023-04-15T09:27:39.318Z,3.00
2023-04-15T09:30:49.748Z,0.00
2023-04-15T09:33:57.979Z,2.33
2023-04-15T09:37:03.556Z,0.00
2023-04-15T09:40:10.247Z,3.00
2023-04-15T09:43:17.405Z,2.00
2023-04-15T09:46:42.336Z,2.67
2023-04-15T09:55:04.043Z,0.00
2023-04-15T09:58:11.872Z,2.00
2023-04-15T10:01:17.184Z,7.00
2023-04-15T10:04:23.926Z,4.00
2023-04-15T10:07:29.735Z,14.67
2023-04-15T10:10:34.946Z,8.67
2023-04-15T10:13:40.856Z,11.67
2023-04-15T10:16:49.658Z,15.33
2023-04-15T10:19:56.268Z,7.00
2023-04-15T10:23:01.141Z,4.00
2023-04-15T10:26:07.042Z,4.00
2023-04-15T10:29:12.463Z,9.67
2023-04-15T10:32:20.184Z,6.33
2023-04-15T10:35:27.007Z,8.67
2023-04-15T10:38:36.844Z,2.00
2023-04-15T10:41:41.532Z,5.00
2023-04-15T10:44:49.958Z,9.67
2023-04-15T10:47:57.539Z,4.67
2023-04-15T10:51:05.269Z,5.00
2023-04-15T10:54:14.952Z,1.00
2023-04-15T10:57:24.881Z,2.00
2023-04-15T11:00:31.923Z,0.00
2023-04-15T11:03:43.873Z,1.00
2023-04-15T11:07:08.680Z,1.00
2023-04-15T11:11:02.935Z,0.00
2023-04-15T11:14:15.930Z,3.00
2023-04-15T11:17:30.042Z,0.67
2023-04-15T11:20:35.435Z,1.00
2023-04-15T11:23:44.332Z,3.00
2023-04-15T11:26:49.469Z,5.00
2023-04-15T11:29:56.579Z,1.67
2023-04-15T11:33:03.876Z,1.33
2023-04-15T11:36:09.127Z,9.00
2023-04-15T11:39:16.926Z,4.00
2023-04-15T11:42:21.533Z,1.00
2023-04-15T11:45:26.850Z,2.00
2023-04-15T11:48:33.885Z,13.67
2023-04-15T11:51:39.146Z,4.00
2023-04-15T11:54:44.012Z,5.33
2023-04-15T11:57:47.776Z,8.67
2023-04-15T12:00:54.149Z,4.00
2023-04-15T12:03:59.927Z,0.67
2023-04-15T12:07:06.653Z,1.00
2023-04-15T12:10:11.982Z,5.67
2023-04-15T12:13:16.387Z,3.00
2023-04-15T12:16:20.911Z,1.00
2023-04-15T12:19:26.679Z,2.00
2023-04-15T12:22:30.588Z,3.00
2023-04-15T12:25:38.809Z,1.00
2023-04-15T12:28:42.741Z,2.00
2023-04-15T12:31:54.062Z,1.00
2023-04-15T12:34:58.304Z,2.00
2023-04-15T12:38:01.708Z,3.00
2023-04-15T12:41:06.925Z,2.00
2023-04-15T12:44:10.395Z,3.00
2023-04-15T12:47:14.687Z,3.00
2023-04-15T12:50:18.628Z,7.00
2023-04-15T12:53:23.180Z,5.00
2023-04-15T12:56:28.095Z,3.33
2023-04-15T12:59:32.079Z,2.00
2023-04-15T13:02:35.596Z,0.67
2023-04-15T13:05:40.699Z,1.00
2023-04-15T13:08:57.267Z,1.00
2023-04-15T13:12:05.473Z,1.00
2023-04-15T13:15:11.433Z,3.00
2023-04-15T13:18:16.030Z,5.00
2023-04-15T13:21:21.589Z,3.00
2023-04-15T13:24:25.848Z,4.00
2023-04-15T13:27:31.570Z,1.33
2023-04-15T13:30:35.592Z,3.00
2023-04-15T13:33:39.174Z,3.67
2023-04-15T13:36:43.431Z,4.33
2023-04-15T13:39:50.504Z,23.33
2023-04-15T13:43:04.876Z,5.00
2023-04-15T13:46:08.689Z,1.00
2023-04-15T13:49:12.713Z,4.67
2023-04-15T13:52:16.282Z,5.00
2023-04-15T13:55:22.230Z,3.00
2023-04-15T13:58:30.637Z,4.67
2023-04-15T14:01:35.495Z,2.00
2023-04-15T14:04:39.276Z,1.33
2023-04-15T14:07:43.578Z,1.00
2023-04-15T14:10:48.667Z,1.00
2023-04-15T14:13:53.803Z,1.00
2023-04-15T14:16:58.848Z,1.00
2023-04-15T14:20:02.823Z,1.00
2023-04-15T14:23:06.342Z,1.00
2023-04-15T14:26:28.359Z,1.00
2023-04-15T14:29:33.203Z,1.00
2023-04-15T14:32:36.944Z,1.00
2023-04-15T14:35:40.607Z,1.00
2023-04-15T14:38:44.331Z,1.00
2023-04-15T14:41:48.192Z,0.00
2023-04-15T14:44:53.472Z,2.00
2023-04-15T14:47:57.859Z,2.00
2023-04-15T14:51:03.246Z,0.00
2023-04-15T14:54:06.905Z,1.00
2023-04-15T14:57:10.943Z,1.00
2023-04-15T15:00:16.496Z,3.00
2023-04-15T15:03:20.608Z,1.00
2023-04-15T15:06:24.343Z,1.67
2023-04-15T15:09:28.299Z,2.00
2023-04-15T15:12:31.854Z,0.00
2023-04-15T15:15:38.691Z,1.00
2023-04-15T15:18:42.564Z,0.00
2023-04-15T15:21:50.117Z,1.00
2023-04-15T15:24:53.703Z,1.67
2023-04-15T15:27:58.771Z,0.33
2023-04-15T15:31:04.579Z,0.33
2023-04-15T15:34:09.581Z,0.33
2023-04-15T15:37:15.831Z,2.00
2023-04-15T15:40:19.671Z,2.33
2023-04-15T15:43:23.125Z,0.67
2023-04-15T15:46:31.448Z,1.00
2023-04-15T15:49:35.127Z,2.33
2023-04-15T15:52:39.505Z,3.67
2023-04-15T15:55:42.947Z,1.00
2023-04-15T15:58:46.866Z,3.00
2023-04-15T16:01:52.507Z,1.00
2023-04-15T16:04:58.120Z,0.33
2023-04-15T16:08:01.888Z,2.00
2023-04-15T16:11:06.421Z,1.00
2023-04-15T16:14:11.035Z,1.00
2023-04-15T16:17:16.431Z,1.00
2023-04-15T16:20:21.456Z,2.00
2023-04-15T16:23:25.227Z,1.00
2023-04-15T16:26:28.913Z,0.33
2023-04-15T16:29:34.456Z,3.00
2023-04-15T16:32:39.383Z,2.00
2023-04-15T16:35:43.212Z,2.00
2023-04-15T16:38:48.829Z,3.00
2023-04-15T16:41:52.654Z,12.67
2023-04-15T16:44:56.681Z,11.33
2023-04-15T16:48:01.935Z,13.67
2023-04-15T16:51:05.907Z,18.75
2023-04-15T16:54:10.108Z,14.00
2023-04-15T16:57:13.718Z,15.67
2023-04-15T17:00:17.815Z,23.75
2023-04-15T17:03:23.422Z,22.00
2023-04-15T17:06:27.864Z,34.25
2023-04-15T17:09:31.356Z,33.50
2023-04-15T17:12:35.957Z,38.75
2023-04-15T17:15:40.727Z,46.25
2023-04-15T17:19:01.419Z,49.00
2023-04-15T17:22:06.419Z,29.25
2023-04-15T17:25:11.131Z,29.25
2023-04-15T17:28:19.990Z,45.50
2023-04-15T17:31:25.805Z,39.00
2023-04-15T17:34:51.558Z,50.50
2023-04-15T17:37:55.578Z,37.25
2023-04-15T17:41:18.948Z,37.00
2023-04-15T17:44:42.763Z,40.00
2023-04-15T17:48:06.262Z,39.75
2023-04-15T17:51:31.833Z,41.00
2023-04-15T17:55:03.787Z,52.75
2023-04-15T17:58:28.194Z,51.50
2023-04-15T18:01:51.972Z,75.25
2023-04-15T18:05:16.474Z,43.25
2023-04-15T18:08:42.621Z,34.75
2023-04-15T18:12:07.776Z,58.75
2023-04-15T18:15:31.619Z,61.00
2023-04-15T18:18:55.868Z,43.50
2023-04-15T18:22:00.246Z,50.25
2023-04-15T18:25:06.958Z,46.00
2023-04-15T18:28:10.579Z,48.25
2023-04-15T18:31:14.302Z,59.50
2023-04-15T18:34:17.916Z,40.50
2023-04-15T18:37:21.763Z,47.00
2023-04-15T18:40:26.712Z,65.50
2023-04-15T18:43:32.384Z,55.50
2023-04-15T18:46:36.216Z,50.50
2023-04-15T18:49:41.597Z,43.00
2023-04-15T18:52:45.103Z,49.50
2023-04-15T18:55:51.025Z,48.75
2023-04-15T18:59:28.105Z,64.75
2023-04-15T19:02:19.693Z,47.50
2023-04-15T19:05:25.429Z,41.75
2023-04-15T19:08:29.921Z,45.75
2023-04-15T19:11:34.875Z,53.75
2023-04-15T19:14:38.595Z,52.00
2023-04-15T19:17:42.693Z,40.75
2023-04-15T19:20:46.717Z,42.50
2023-04-15T19:23:50.303Z,31.50
2023-04-15T19:26:57.191Z,75.50
2023-04-15T19:30:01.967Z,69.25
2023-04-15T19:33:05.768Z,60.75
2023-04-15T19:36:09.385Z,54.75
2023-04-15T19:39:13.663Z,60.00
2023-04-15T19:42:18.509Z,42.50
2023-04-15T19:45:22.256Z,38.75
2023-04-15T19:48:26.500Z,52.75
2023-04-15T19:51:31.974Z,43.50
2023-04-15T19:54:35.540Z,62.75
2023-04-15T19:57:41.041Z,36.25
2023-04-15T20:00:44.645Z,67.00
2023-04-15T20:03:48.897Z,64.00
2023-04-15T20:06:52.599Z,49.75
2023-04-15T20:09:56.465Z,54.25
2023-04-15T20:13:01.259Z,41.50
2023-04-15T20:16:07.939Z,35.00
2023-04-15T20:19:12.417Z,54.75
2023-04-15T20:22:16.377Z,40.75
2023-04-15T20:25:20.070Z,46.75
2023-04-15T20:28:27.513Z,57.75
2023-04-15T20:31:31.181Z,45.50
2023-04-15T20:34:35.150Z,58.00
2023-04-15T20:37:40.468Z,39.25
2023-04-15T20:40:44.465Z,35.75
2023-04-15T20:43:49.254Z,54.25
2023-04-15T20:46:53.663Z,46.75
2023-04-15T20:49:57.048Z,55.25
2023-04-15T20:53:01.363Z,53.50
2023-04-15T20:56:06.679Z,59.75
2023-04-15T20:59:12.089Z,43.25
2023-04-15T21:02:15.890Z,41.75
2023-04-15T21:05:21.662Z,48.25
2023-04-15T21:08:55.113Z,41.75
2023-04-15T21:12:27.100Z,60.25
2023-04-15T21:15:31.931Z,43.75
2023-04-15T21:18:35.780Z,44.25
2023-04-15T21:21:39.306Z,41.50
2023-04-15T21:24:43.064Z,49.50
2023-04-15T21:27:46.752Z,44.75
2023-04-15T21:30:51.781Z,42.75
2023-04-15T21:33:55.361Z,49.00
2023-04-15T21:36:59.036Z,49.25
2023-04-15T21:40:02.455Z,40.75
2023-04-15T21:43:06.328Z,37.25
2023-04-15T21:46:22.248Z,44.00
2023-04-15T21:49:30.664Z,43.00
2023-04-15T21:52:34.222Z,47.50
2023-04-15T21:55:38.117Z,34.50
2023-04-15T21:58:43.880Z,45.25
2023-04-15T22:01:51.679Z,46.25
2023-04-15T22:04:55.282Z,41.00
2023-04-15T22:08:04.680Z,33.00
2023-04-15T22:11:08.081Z,48.50
2023-04-15T22:14:11.816Z,40.50
2023-04-15T22:17:16.618Z,45.50
2023-04-15T22:20:20.364Z,37.00
2023-04-15T22:23:23.865Z,34.25
2023-04-15T22:26:28.210Z,40.50
2023-04-15T22:29:32.427Z,39.00
2023-04-15T22:32:39.213Z,33.50
2023-04-15T22:35:42.799Z,54.00
2023-04-15T22:38:47.710Z,38.00
2023-04-15T22:41:53.133Z,27.25
2023-04-15T22:44:56.951Z,28.50
2023-04-15T22:48:02.627Z,20.50
2023-04-15T22:51:06.667Z,21.50
2023-04-15T22:54:10.157Z,24.00
2023-04-15T22:57:14.056Z,17.00
2023-04-15T23:00:17.636Z,19.50
2023-04-15T23:03:22.924Z,15.00
2023-04-15T23:06:27.141Z,33.50
2023-04-15T23:09:31.115Z,20.00
2023-04-15T23:12:34.700Z,20.75
2023-04-15T23:15:38.393Z,30.25
2023-04-15T23:18:43.196Z,20.25
2023-04-15T23:21:47.087Z,22.50
2023-04-15T23:24:50.475Z,21.75
2023-04-15T23:27:54.322Z,25.00
2023-04-15T23:31:00.437Z,28.75
2023-04-15T23:34:06.486Z,43.00
2023-04-15T23:37:10.189Z,22.75
2023-04-15T23:40:15.684Z,22.25
2023-04-15T23:43:19.208Z,17.00
2023-04-15T23:46:23.059Z,19.75
2023-04-15T23:49:27.925Z,24.50
2023-04-15T23:52:31.926Z,25.25
2023-04-15T23:55:35.954Z,18.25
2023-04-15T23:58:39.727Z,22.50
